createdAt,value
2019-04-28T00:00:43.666Z,89.0427
2019-04-28T00:01:44.858Z,89.7348
2019-04-28T00:02:46.692Z,90.1313
2019-04-28T00:03:47.887Z,89.7401
2019-04-28T00:04:51.395Z,88.4096
2019-04-28T00:05:52.702Z,88.4771
2019-04-28T00:06:54.578Z,88.3944
2019-04-28T00:07:55.771Z,88.4034
2019-04-28T00:08:57.659Z,88.9622
2019-04-28T00:09:58.986Z,89.0185
2019-04-28T00:11:01.948Z,88.1971
2019-04-28T00:12:03.179Z,87.3513
2019-04-28T00:13:05.024Z,86.5124
2019-04-28T00:14:08.358Z,87.1843
2019-04-28T00:15:10.900Z,87.5252
2019-04-28T00:16:12.795Z,86.8905
2019-04-28T00:17:14.776Z,86.7746
2019-04-28T00:18:16.617Z,86.6610
2019-04-28T00:19:18.454Z,87.7058
2019-04-28T00:20:21.329Z,87.6662
2019-04-28T00:21:23.504Z,86.9999
2019-04-28T00:22:25.352Z,86.5967
2019-04-28T00:23:26.325Z,86.9853
2019-04-28T00:24:28.233Z,87.7333
2019-04-28T00:25:31.201Z,88.2312
2019-04-28T00:26:33.127Z,88.1086
2019-04-28T00:27:34.996Z,86.6460
2019-04-28T00:28:36.193Z,86.9368
2019-04-28T00:29:41.293Z,86.9979
2019-04-28T00:30:43.731Z,86.9477
2019-04-28T00:31:45.660Z,87.3187
2019-04-28T00:32:46.853Z,87.2582
2019-04-28T00:33:48.674Z,86.6064
2019-04-28T00:34:51.235Z,86.2673
2019-04-28T00:35:53.183Z,86.8790
2019-04-28T00:36:55.088Z,87.5552
2019-04-28T00:37:57.353Z,87.9094
2019-04-28T00:38:59.250Z,87.9455
2019-04-28T00:40:01.189Z,87.7345
2019-04-28T00:41:02.507Z,87.5671
2019-04-28T00:42:04.392Z,87.7636
2019-04-28T00:43:06.562Z,87.6928
2019-04-28T00:44:07.826Z,87.8720
2019-04-28T00:45:11.406Z,87.2495
2019-04-28T00:46:12.784Z,87.7704
2019-04-28T00:47:13.981Z,88.1969
2019-04-28T00:48:15.820Z,88.1532
2019-04-28T00:49:17.956Z,87.9362
2019-04-28T00:50:21.655Z,87.7735
2019-04-28T00:51:22.961Z,88.5168
2019-04-28T00:52:24.838Z,87.1706
2019-04-28T00:53:26.768Z,87.2367
2019-04-28T00:54:28.251Z,86.1805
2019-04-28T00:55:31.906Z,86.5050
2019-04-28T00:56:33.863Z,87.3863
2019-04-28T00:57:35.723Z,86.9678
2019-04-28T00:58:37.707Z,87.0356
2019-04-28T00:59:52.065Z,87.3129
2019-04-28T01:00:46.167Z,86.7425
2019-04-28T01:01:48.013Z,86.6903
2019-04-28T01:02:50.981Z,86.0319
2019-04-28T01:03:52.042Z,86.4789
2019-04-28T01:04:53.883Z,87.2357
2019-04-28T01:05:55.089Z,86.8996
2019-04-28T01:06:56.883Z,86.0941
2019-04-28T01:07:58.097Z,86.2637
2019-04-28T01:09:01.372Z,85.7833
2019-04-28T01:10:05.811Z,86.7425
2019-04-28T01:11:07.028Z,86.2784
2019-04-28T01:12:08.879Z,85.8383
2019-04-28T01:13:11.676Z,85.6014
2019-04-28T01:14:13.617Z,85.2121
2019-04-28T01:15:15.765Z,84.4918
2019-04-28T01:16:19.317Z,84.9115
2019-04-28T01:17:21.284Z,84.7491
2019-04-28T01:18:22.478Z,85.3945
2019-04-28T01:19:24.301Z,85.7446
2019-04-28T01:20:26.370Z,85.3928
2019-04-28T01:21:27.561Z,84.2814
2019-04-28T01:22:30.064Z,83.2844
2019-04-28T01:23:32.039Z,82.8124
2019-04-28T01:24:33.801Z,82.8381
2019-04-28T01:25:35.016Z,83.8810
2019-04-28T01:26:36.808Z,85.4577
2019-04-28T01:27:40.262Z,85.6267
2019-04-28T01:28:42.217Z,84.9356
2019-04-28T01:29:44.096Z,85.5713
2019-04-28T01:30:46.174Z,85.5375
2019-04-28T01:31:49.324Z,84.2443
2019-04-28T01:32:51.322Z,83.4957
2019-04-28T01:33:53.156Z,83.8411
2019-04-28T01:34:55.001Z,83.2500
2019-04-28T01:35:57.232Z,84.1165
2019-04-28T01:36:59.796Z,84.2585
2019-04-28T01:38:01.744Z,83.9632
2019-04-28T01:39:03.546Z,84.3658
2019-04-28T01:40:05.487Z,84.2104
2019-04-28T01:41:07.604Z,85.0019
2019-04-28T01:42:10.594Z,84.7811
2019-04-28T01:43:12.564Z,84.1279
2019-04-28T01:44:13.769Z,84.2637
2019-04-28T01:45:14.954Z,84.7771
2019-04-28T01:46:17.270Z,84.3923
2019-04-28T01:47:20.499Z,84.1594
2019-04-28T01:48:22.487Z,84.4716
2019-04-28T01:49:24.363Z,85.1467
2019-04-28T01:50:26.281Z,85.0448
2019-04-28T01:51:28.162Z,85.2297
2019-04-28T01:52:30.305Z,86.0826
2019-04-28T01:53:32.369Z,85.7897
2019-04-28T01:54:34.319Z,85.6430
2019-04-28T01:55:35.507Z,85.4116
2019-04-28T01:56:37.315Z,85.0816
2019-04-28T01:57:40.016Z,84.4930
2019-04-28T01:58:41.188Z,83.9339
2019-04-28T01:59:42.024Z,83.5507
2019-04-28T02:00:43.916Z,83.8637
2019-04-28T02:01:45.713Z,84.2348
2019-04-28T02:02:46.922Z,84.4537
2019-04-28T02:03:50.263Z,84.0756
2019-04-28T02:04:52.181Z,84.8593
2019-04-28T02:05:53.995Z,84.5875
2019-04-28T02:06:55.896Z,85.1681
2019-04-28T02:07:58.020Z,85.0566
2019-04-28T02:09:00.841Z,84.9041
2019-04-28T02:10:02.200Z,85.2993
2019-04-28T02:11:04.039Z,85.6829
2019-04-28T02:12:05.848Z,85.5853
2019-04-28T02:13:07.622Z,85.3391
2019-04-28T02:14:09.683Z,85.2179
2019-04-28T02:15:11.534Z,85.4642
2019-04-28T02:16:13.424Z,85.5666
2019-04-28T02:17:15.295Z,85.6545
2019-04-28T02:18:17.155Z,86.1847
2019-04-28T02:19:20.364Z,86.3549
2019-04-28T02:20:21.626Z,86.3406
2019-04-28T02:21:22.823Z,86.8068
2019-04-28T02:22:24.335Z,86.9800
2019-04-28T02:23:25.542Z,87.2399
2019-04-28T02:24:27.294Z,87.2688
2019-04-28T02:25:29.832Z,87.4622
2019-04-28T02:26:31.429Z,87.8132
2019-04-28T02:27:33.319Z,88.2889
2019-04-28T02:28:35.195Z,88.6085
2019-04-28T02:29:37.168Z,89.2178
2019-04-28T02:30:45.459Z,89.3070
2019-04-28T02:31:45.167Z,89.3382
2019-04-28T02:32:46.957Z,89.1635
2019-04-28T02:33:50.492Z,88.9222
2019-04-28T02:34:54.481Z,88.8198
2019-04-28T02:35:56.407Z,88.9328
2019-04-28T02:37:00.993Z,87.7012
2019-04-28T02:38:03.032Z,87.4176
2019-04-28T02:39:04.234Z,87.8845
2019-04-28T02:40:06.071Z,87.9630
2019-04-28T02:41:07.270Z,87.8372
2019-04-28T02:42:10.901Z,88.2694
2019-04-28T02:43:12.396Z,87.6954
2019-04-28T02:44:14.220Z,88.2293
2019-04-28T02:45:15.427Z,88.4817
2019-04-28T02:46:17.255Z,88.3785
2019-04-28T02:47:21.638Z,87.5223
2019-04-28T02:48:24.700Z,87.1366
2019-04-28T02:49:26.116Z,87.3743
2019-04-28T02:50:30.450Z,88.5887
2019-04-28T02:51:33.953Z,86.5400
2019-04-28T02:52:35.149Z,86.0900
2019-04-28T02:53:36.340Z,87.0689
2019-04-28T02:54:40.351Z,88.9628
2019-04-28T02:55:41.794Z,90.3662
2019-04-28T02:56:43.721Z,89.9691
2019-04-28T02:57:45.565Z,89.4291
2019-04-28T02:58:47.525Z,89.8797
2019-04-28T02:59:50.930Z,90.4876
2019-04-28T03:01:06.795Z,90.9610
2019-04-28T03:02:00.691Z,91.9266
2019-04-28T03:03:01.950Z,92.6238
2019-04-28T03:04:03.197Z,93.4248
2019-04-28T03:05:05.038Z,93.4535
2019-04-28T03:06:06.240Z,93.3865
2019-04-28T03:07:08.058Z,93.1207
2019-04-28T03:08:11.131Z,93.1863
2019-04-28T03:09:13.191Z,93.1933
2019-04-28T03:10:14.097Z,92.5956
2019-04-28T03:11:16.252Z,92.6652
2019-04-28T03:12:18.073Z,92.6579
2019-04-28T03:13:20.979Z,94.0054
2019-04-28T03:14:22.301Z,93.8040
2019-04-28T03:15:23.486Z,93.6171
2019-04-28T03:16:25.620Z,92.3026
2019-04-28T03:17:27.480Z,90.8652
2019-04-28T03:18:31.373Z,91.4685
2019-04-28T03:19:34.192Z,92.1313
2019-04-28T03:20:35.977Z,93.1738
2019-04-28T03:21:41.392Z,94.3708
2019-04-28T03:22:42.894Z,94.9242
2019-04-28T03:23:43.665Z,95.0997
2019-04-28T03:24:44.926Z,95.4680
2019-04-28T03:25:46.786Z,96.0740
2019-04-28T03:26:50.951Z,96.4011
2019-04-28T03:27:52.934Z,95.9148
2019-04-28T03:28:54.190Z,95.1102
2019-04-28T03:29:56.044Z,94.9723
2019-04-28T03:30:57.969Z,94.9095
2019-04-28T03:32:23.128Z,95.4718
2019-04-28T03:33:11.615Z,96.1088
2019-04-28T03:34:12.872Z,96.4497
2019-04-28T03:35:14.112Z,96.7898
2019-04-28T03:36:16.149Z,97.0333
2019-04-28T03:37:18.277Z,97.2741
2019-04-28T03:38:21.372Z,97.9302
2019-04-28T03:39:23.368Z,97.5813
2019-04-28T03:40:25.239Z,96.8046
2019-04-28T03:41:26.424Z,96.5537
2019-04-28T03:42:31.148Z,96.3663
2019-04-28T03:43:33.501Z,96.7015
2019-04-28T03:44:35.306Z,96.6861
2019-04-28T03:45:37.159Z,96.9459
2019-04-28T03:46:41.212Z,96.8879
2019-04-28T03:47:42.567Z,96.4230
2019-04-28T03:48:43.755Z,96.1961
2019-04-28T03:49:45.711Z,96.4254
2019-04-28T03:50:47.571Z,96.8348
2019-04-28T03:51:50.627Z,96.7243
2019-04-28T03:52:52.493Z,95.7781
2019-04-28T03:53:54.525Z,94.9829
2019-04-28T03:54:56.401Z,94.9384
2019-04-28T03:55:56.600Z,94.1200
2019-04-28T03:57:01.088Z,93.8789
2019-04-28T03:58:02.558Z,93.9200
2019-04-28T03:59:04.661Z,94.2214
2019-04-28T04:00:06.308Z,94.8916
2019-04-28T04:01:10.842Z,94.0731
2019-04-28T04:02:12.224Z,93.4521
2019-04-28T04:03:14.070Z,94.2803
2019-04-28T04:04:15.281Z,95.4489
2019-04-28T04:05:16.484Z,96.4107
2019-04-28T04:06:18.192Z,96.6785
2019-04-28T04:07:21.240Z,96.9011
2019-04-28T04:08:23.010Z,97.2940
2019-04-28T04:09:25.224Z,97.5547
2019-04-28T04:10:27.011Z,97.6734
2019-04-28T04:11:28.208Z,97.6437
2019-04-28T04:12:30.944Z,97.6196
2019-04-28T04:13:33.254Z,97.6630
2019-04-28T04:14:35.089Z,97.9028
2019-04-28T04:15:36.994Z,98.2076
2019-04-28T04:16:40.540Z,98.6398
2019-04-28T04:17:42.730Z,99.1031
2019-04-28T04:18:43.498Z,99.2938
2019-04-28T04:19:45.586Z,99.4434
2019-04-28T04:20:47.476Z,99.5908
2019-04-28T04:21:50.606Z,99.6337
2019-04-28T04:22:53.942Z,99.7572
2019-04-28T04:23:55.775Z,99.9473
2019-04-28T04:24:55.993Z,99.9939
2019-04-28T04:25:57.895Z,99.9939
2019-04-28T04:27:00.815Z,99.9939
2019-04-28T04:28:03.686Z,99.9939
2019-04-28T04:29:05.178Z,99.9939
2019-04-28T04:30:07.286Z,99.9939
2019-04-28T04:31:10.213Z,99.9939
2019-04-28T04:32:22.820Z,99.9939
2019-04-28T04:33:20.629Z,99.9939
2019-04-28T04:34:24.167Z,99.9939
2019-04-28T04:35:25.375Z,99.9939
2019-04-28T04:36:27.214Z,99.9088
2019-04-28T04:37:30.741Z,99.2238
2019-04-28T04:38:32.848Z,98.5559
2019-04-28T04:39:34.075Z,97.7779
2019-04-28T04:40:35.867Z,97.4967
2019-04-28T04:41:37.099Z,97.4718
2019-04-28T04:42:40.306Z,97.5558
2019-04-28T04:43:41.916Z,97.5773
2019-04-28T04:44:43.692Z,98.1637
2019-04-28T04:45:44.889Z,98.4319
2019-04-28T04:46:46.083Z,98.2505
2019-04-28T04:47:47.270Z,98.0381
2019-04-28T04:48:50.750Z,98.0534
2019-04-28T04:49:52.179Z,98.1169
2019-04-28T04:50:54.041Z,98.0455
2019-04-28T04:51:54.917Z,98.0239
2019-04-28T04:52:56.882Z,98.0740
2019-04-28T04:54:00.708Z,98.0805
2019-04-28T04:55:03.547Z,97.6028
2019-04-28T04:56:04.733Z,96.7787
2019-04-28T04:57:06.560Z,96.2207
2019-04-28T04:58:07.778Z,95.6200
2019-04-28T04:59:10.341Z,95.5439
2019-04-28T05:00:11.646Z,94.7496
2019-04-28T05:01:13.683Z,94.2644
2019-04-28T05:02:28.339Z,94.0218
2019-04-28T05:03:21.412Z,94.1659
2019-04-28T05:04:23.411Z,94.2857
2019-04-28T05:05:25.290Z,93.9830
2019-04-28T05:06:26.167Z,93.7711
2019-04-28T05:07:29.540Z,93.8236
2019-04-28T05:08:31.109Z,93.7465
2019-04-28T05:09:33.012Z,93.0948
2019-04-28T05:10:34.195Z,92.3254
2019-04-28T05:11:36.037Z,92.7486
2019-04-28T05:12:38.201Z,93.2884
2019-04-28T05:13:39.911Z,93.1993
2019-04-28T05:14:41.844Z,93.2702
2019-04-28T05:15:43.709Z,93.3694
2019-04-28T05:16:45.488Z,93.6288
2019-04-28T05:17:47.443Z,93.9097
2019-04-28T05:18:49.918Z,93.5979
2019-04-28T05:19:51.900Z,93.5390
2019-04-28T05:20:53.105Z,93.7693
2019-04-28T05:21:55.087Z,94.2183
2019-04-28T05:22:57.178Z,94.2459
2019-04-28T05:23:59.644Z,94.2271
2019-04-28T05:25:01.404Z,94.3311
2019-04-28T05:26:08.167Z,94.8408
2019-04-28T05:27:09.764Z,94.4515
2019-04-28T05:28:11.070Z,94.5555
2019-04-28T05:29:12.297Z,94.8397
2019-04-28T05:30:14.219Z,95.2878
2019-04-28T05:31:20.658Z,95.1531
2019-04-28T05:32:22.160Z,95.3938
2019-04-28T05:33:30.248Z,95.4991
2019-04-28T05:34:29.802Z,95.6844
2019-04-28T05:35:31.035Z,96.0266
2019-04-28T05:36:40.937Z,96.4209
2019-04-28T05:37:40.326Z,96.5696
2019-04-28T05:38:42.151Z,96.4057
2019-04-28T05:39:43.443Z,96.6061
2019-04-28T05:40:45.273Z,96.7681
2019-04-28T05:41:46.457Z,97.1966
2019-04-28T05:42:47.654Z,97.4422
2019-04-28T05:43:50.448Z,97.4128
2019-04-28T05:44:52.372Z,97.4827
2019-04-28T05:45:53.543Z,97.3288
2019-04-28T05:46:55.453Z,97.2995
2019-04-28T05:47:57.367Z,97.5470
2019-04-28T05:49:00.001Z,97.9244
2019-04-28T05:50:01.239Z,98.0964
2019-04-28T05:51:02.435Z,97.8915
2019-04-28T05:52:04.356Z,97.5348
2019-04-28T05:53:06.112Z,97.4535
2019-04-28T05:54:09.748Z,97.7506
2019-04-28T05:55:12.121Z,97.6803
2019-04-28T05:56:13.330Z,96.2777
2019-04-28T05:57:15.220Z,95.7447
2019-04-28T05:58:16.426Z,95.7077
2019-04-28T05:59:19.476Z,95.6122
2019-04-28T06:00:22.346Z,96.3022
2019-04-28T06:01:24.225Z,96.6579
2019-04-28T06:02:25.472Z,96.5738
2019-04-28T06:03:26.649Z,96.7047
2019-04-28T06:04:30.283Z,96.6222
2019-04-28T06:05:32.682Z,96.8930
2019-04-28T06:06:33.885Z,96.8859
2019-04-28T06:07:35.748Z,97.0466
2019-04-28T06:08:37.050Z,97.3732
2019-04-28T06:09:39.872Z,97.4943
2019-04-28T06:10:41.353Z,97.6971
2019-04-28T06:11:43.273Z,98.2854
2019-04-28T06:12:45.207Z,98.4499
2019-04-28T06:13:47.085Z,98.3019
2019-04-28T06:14:50.229Z,97.9757
2019-04-28T06:15:52.508Z,97.7955
2019-04-28T06:16:53.711Z,97.8037
2019-04-28T06:17:55.587Z,98.0535
2019-04-28T06:18:57.471Z,98.3596
2019-04-28T06:20:00.170Z,98.6654
2019-04-28T06:21:01.892Z,98.8080
2019-04-28T06:22:03.781Z,99.1670
2019-04-28T06:23:05.641Z,99.4259
2019-04-28T06:24:07.441Z,99.4466
2019-04-28T06:25:09.354Z,99.1648
2019-04-28T06:26:11.469Z,99.1563
2019-04-28T06:27:13.265Z,98.8960
2019-04-28T06:28:15.112Z,98.7356
2019-04-28T06:29:16.315Z,98.7802
2019-04-28T06:30:18.044Z,98.9246
2019-04-28T06:31:19.231Z,98.5225
2019-04-28T06:32:20.943Z,98.6896
2019-04-28T06:33:21.135Z,98.6678
2019-04-28T06:34:22.951Z,98.7871
2019-04-28T06:35:24.860Z,98.3678
2019-04-28T06:36:26.555Z,98.1988
2019-04-28T06:37:28.438Z,98.2548
2019-04-28T06:38:30.359Z,98.6584
2019-04-28T06:39:31.589Z,98.4584
2019-04-28T06:40:33.424Z,98.3306
2019-04-28T06:41:35.520Z,98.4586
2019-04-28T06:42:37.482Z,97.4713
2019-04-28T06:43:38.672Z,96.5709
2019-04-28T06:44:40.557Z,96.4401
2019-04-28T06:45:42.519Z,96.1603
2019-04-28T06:46:43.717Z,96.0911
2019-04-28T06:47:45.533Z,96.2728
2019-04-28T06:48:46.729Z,96.1665
2019-04-28T06:49:48.559Z,96.4625
2019-04-28T06:50:50.375Z,97.1880
2019-04-28T06:51:52.527Z,97.3795
2019-04-28T06:52:54.485Z,97.7800
2019-04-28T06:53:56.222Z,98.5301
2019-04-28T06:54:58.208Z,98.9140
2019-04-28T06:56:00.043Z,99.2454
2019-04-28T06:57:01.972Z,99.5053
2019-04-28T06:58:03.877Z,99.6272
2019-04-28T06:59:05.745Z,99.7068
2019-04-28T07:00:06.942Z,99.7920
2019-04-28T07:01:08.692Z,99.5186
2019-04-28T07:02:11.123Z,99.2556
2019-04-28T07:03:22.698Z,99.1219
2019-04-28T07:04:18.716Z,99.3676
2019-04-28T07:05:20.553Z,98.9770
2019-04-28T07:06:21.759Z,98.6691
2019-04-28T07:07:22.998Z,98.5705
2019-04-28T07:08:24.184Z,98.7408
2019-04-28T07:09:26.046Z,98.8442
2019-04-28T07:10:27.338Z,98.8516
2019-04-28T07:11:29.182Z,98.8051
2019-04-28T07:12:30.896Z,98.9191
2019-04-28T07:13:32.888Z,98.6942
2019-04-28T07:14:34.723Z,98.7822
2019-04-28T07:15:36.563Z,98.9586
2019-04-28T07:16:37.777Z,99.0152
2019-04-28T07:17:38.970Z,99.1354
2019-04-28T07:18:39.787Z,98.5744
2019-04-28T07:19:41.658Z,98.1532
2019-04-28T07:20:43.484Z,98.1984
2019-04-28T07:21:45.283Z,97.9109
2019-04-28T07:22:47.169Z,97.5021
2019-04-28T07:23:47.951Z,97.3903
2019-04-28T07:24:49.151Z,96.9162
2019-04-28T07:25:50.864Z,97.2772
2019-04-28T07:26:52.776Z,97.7901
2019-04-28T07:27:54.563Z,97.9748
2019-04-28T07:28:56.384Z,98.0011
2019-04-28T07:29:58.155Z,98.6287
2019-04-28T07:30:59.346Z,99.0489
2019-04-28T07:32:01.142Z,99.1263
2019-04-28T07:33:03.271Z,98.9147
2019-04-28T07:34:05.292Z,98.5186
2019-04-28T07:35:07.168Z,98.6238
2019-04-28T07:36:09.021Z,98.5054
2019-04-28T07:37:10.802Z,98.6397
2019-04-28T07:38:13.059Z,98.5628
2019-04-28T07:39:14.794Z,98.5639
2019-04-28T07:40:16.705Z,98.4053
2019-04-28T07:41:18.487Z,98.6675
2019-04-28T07:42:20.303Z,98.6390
2019-04-28T07:43:21.530Z,98.4578
2019-04-28T07:44:22.726Z,97.7722
2019-04-28T07:45:24.565Z,96.5818
2019-04-28T07:46:26.442Z,96.2413
2019-04-28T07:47:27.643Z,94.9971
2019-04-28T07:48:29.788Z,92.7705
2019-04-28T07:49:31.629Z,91.4876
2019-04-28T07:50:33.613Z,91.3384
2019-04-28T07:51:35.471Z,91.0400
2019-04-28T07:52:37.272Z,90.7102
2019-04-28T07:53:39.398Z,88.0746
2019-04-28T07:54:41.226Z,87.7652
2019-04-28T07:55:43.116Z,88.3591
2019-04-28T07:56:44.996Z,87.0819
2019-04-28T07:57:46.778Z,86.8392
2019-04-28T07:58:48.893Z,87.3773
2019-04-28T07:59:49.699Z,86.0775
2019-04-28T08:00:50.889Z,86.4015
2019-04-28T08:01:52.114Z,87.1964
2019-04-28T08:02:53.939Z,86.1377
2019-04-28T08:03:57.511Z,86.7139
2019-04-28T08:04:59.452Z,85.7238
2019-04-28T08:06:01.309Z,87.8185
2019-04-28T08:07:03.151Z,89.1901
2019-04-28T08:08:04.440Z,90.7554
2019-04-28T08:09:06.535Z,91.0081
2019-04-28T08:10:08.575Z,91.5953
2019-04-28T08:11:10.383Z,91.4215
2019-04-28T08:12:12.247Z,91.0636
2019-04-28T08:13:14.109Z,92.8586
2019-04-28T08:14:15.320Z,92.7124
2019-04-28T08:15:17.235Z,92.0745
2019-04-28T08:16:18.885Z,91.8278
2019-04-28T08:17:20.035Z,91.1956
2019-04-28T08:18:21.893Z,89.8758
2019-04-28T08:19:23.714Z,86.7781
2019-04-28T08:20:24.921Z,84.2586
2019-04-28T08:21:26.146Z,83.2225
2019-04-28T08:22:28.018Z,81.8999
2019-04-28T08:23:29.987Z,80.2245
2019-04-28T08:24:31.422Z,76.6290
2019-04-28T08:25:32.369Z,73.8379
2019-04-28T08:26:36.307Z,68.8471
2019-04-28T08:27:38.336Z,69.0583
2019-04-28T08:28:40.154Z,71.9983
2019-04-28T08:29:42.240Z,69.0793
2019-04-28T08:30:44.025Z,70.0702
2019-04-28T08:31:45.879Z,72.5497
2019-04-28T08:32:46.777Z,78.3580
2019-04-28T08:33:48.697Z,79.1123
2019-04-28T08:34:49.886Z,73.7543
2019-04-28T08:35:51.667Z,71.0735
2019-04-28T08:36:52.872Z,67.1845
2019-04-28T08:37:54.661Z,66.2746
2019-04-28T08:38:56.503Z,65.8826
2019-04-28T08:39:58.650Z,67.5845
2019-04-28T08:41:00.432Z,71.6623
2019-04-28T08:42:02.263Z,69.6731
2019-04-28T08:43:04.138Z,65.6428
2019-04-28T08:44:06.121Z,62.4692
2019-04-28T08:45:07.443Z,59.3637
2019-04-28T08:46:09.293Z,59.5899
2019-04-28T08:47:11.132Z,63.3950
2019-04-28T08:48:12.339Z,65.8739
2019-04-28T08:49:14.205Z,70.9349
2019-04-28T08:50:16.279Z,74.7328
2019-04-28T08:51:18.208Z,75.2900
2019-04-28T08:52:19.239Z,73.7965
2019-04-28T08:53:20.983Z,71.0872
2019-04-28T08:54:22.203Z,67.0789
2019-04-28T08:55:23.407Z,64.4235
2019-04-28T08:56:24.236Z,61.3123
2019-04-28T08:57:26.024Z,61.3050
2019-04-28T08:58:27.213Z,65.2955
2019-04-28T08:59:29.117Z,61.5853
2019-04-28T09:00:31.102Z,57.8178
2019-04-28T09:01:32.804Z,58.1362
2019-04-28T09:02:34.613Z,61.7738
2019-04-28T09:03:36.437Z,63.4691
2019-04-28T09:04:38.669Z,63.6304
2019-04-28T09:05:40.536Z,61.9071
2019-04-28T09:06:42.385Z,63.2673
2019-04-28T09:07:44.249Z,62.8192
2019-04-28T09:08:45.441Z,61.8426
2019-04-28T09:09:47.302Z,60.1739
2019-04-28T09:10:48.492Z,58.7450
2019-04-28T09:11:49.702Z,61.0200
2019-04-28T09:12:51.513Z,60.8994
2019-04-28T09:13:53.381Z,61.3528
2019-04-28T09:14:55.204Z,64.4760
2019-04-28T09:15:57.029Z,69.6355
2019-04-28T09:16:59.223Z,69.1619
2019-04-28T09:18:01.018Z,71.5075
2019-04-28T09:19:02.217Z,73.8810
2019-04-28T09:20:04.030Z,74.5300
2019-04-28T09:21:05.839Z,75.5603
2019-04-28T09:22:08.200Z,74.8670
2019-04-28T09:23:10.298Z,75.5998
2019-04-28T09:24:12.202Z,72.6090
2019-04-28T09:25:14.035Z,72.0989
2019-04-28T09:26:16.087Z,72.4710
2019-04-28T09:27:18.160Z,66.8201
2019-04-28T09:28:19.363Z,59.9440
2019-04-28T09:29:21.377Z,61.8597
2019-04-28T09:30:22.582Z,63.5938
2019-04-28T09:31:23.921Z,61.4407
2019-04-28T09:32:26.019Z,62.9031
2019-04-28T09:33:27.994Z,63.1262
2019-04-28T09:34:29.851Z,61.0764
2019-04-28T09:35:31.686Z,60.6433
2019-04-28T09:36:33.544Z,58.2631
2019-04-28T09:37:35.683Z,57.3638
2019-04-28T09:38:36.899Z,60.1674
2019-04-28T09:39:38.144Z,64.2844
2019-04-28T09:40:38.956Z,67.0690
2019-04-28T09:41:46.900Z,68.8602
2019-04-28T09:42:48.085Z,69.9417
2019-04-28T09:43:49.949Z,69.9276
2019-04-28T09:44:51.250Z,74.2689
2019-04-28T09:45:53.044Z,76.0836
2019-04-28T09:46:54.245Z,76.7762
2019-04-28T09:47:56.205Z,75.0230
2019-04-28T09:48:57.403Z,76.1743
2019-04-28T09:49:59.247Z,73.3905
2019-04-28T09:51:00.003Z,72.7387
2019-04-28T09:52:01.267Z,69.1865
2019-04-28T09:53:02.489Z,67.6856
2019-04-28T09:54:02.872Z,62.9310
2019-04-28T09:55:04.685Z,66.4707
2019-04-28T09:56:06.549Z,62.9144
2019-04-28T09:57:08.401Z,61.0027
2019-04-28T09:58:09.652Z,59.4104
2019-04-28T09:59:11.474Z,61.5460
2019-04-28T10:00:12.268Z,61.4952
2019-04-28T10:01:14.717Z,63.0703
2019-04-28T10:02:16.549Z,59.8334
2019-04-28T10:03:18.694Z,61.9732
2019-04-28T10:04:20.903Z,62.1996
2019-04-28T10:05:22.744Z,61.2462
2019-04-28T10:06:24.508Z,64.5449
2019-04-28T10:07:26.366Z,67.1046
2019-04-28T10:08:28.340Z,66.5865
2019-04-28T10:09:29.529Z,62.0612
2019-04-28T10:10:31.383Z,60.0207
2019-04-28T10:11:32.583Z,57.6824
2019-04-28T10:12:34.458Z,56.9458
2019-04-28T10:13:36.246Z,59.3419
2019-04-28T10:14:38.525Z,55.2733
2019-04-28T10:15:40.692Z,55.6403
2019-04-28T10:16:42.413Z,55.4646
2019-04-28T10:17:44.224Z,54.3181
2019-04-28T10:18:46.106Z,52.7317
2019-04-28T10:19:47.297Z,52.3418
2019-04-28T10:20:49.127Z,52.1725
2019-04-28T10:21:51.106Z,51.9439
2019-04-28T10:22:52.306Z,52.8000
2019-04-28T10:23:54.185Z,50.9142
2019-04-28T10:24:56.367Z,53.1553
2019-04-28T10:25:58.252Z,52.9238
2019-04-28T10:26:59.995Z,51.8150
2019-04-28T10:28:01.764Z,55.9593
2019-04-28T10:29:02.657Z,59.9845
2019-04-28T10:30:03.865Z,60.4438
2019-04-28T10:31:05.808Z,59.3748
2019-04-28T10:32:07.597Z,54.2535
2019-04-28T10:33:09.407Z,54.5685
2019-04-28T10:34:11.216Z,55.6357
2019-04-28T10:35:12.397Z,55.5128
2019-04-28T10:36:13.948Z,54.0264
2019-04-28T10:37:15.137Z,59.7942
2019-04-28T10:38:17.000Z,58.7255
2019-04-28T10:39:18.746Z,57.9065
2019-04-28T10:40:20.950Z,57.3550
2019-04-28T10:41:22.819Z,56.5702
2019-04-28T10:42:24.858Z,60.0379
2019-04-28T10:43:25.757Z,59.6525
2019-04-28T10:44:27.665Z,61.7621
2019-04-28T10:45:29.739Z,62.8800
2019-04-28T10:46:31.547Z,62.6852
2019-04-28T10:47:32.748Z,60.9482
2019-04-28T10:48:34.799Z,61.5326
2019-04-28T10:49:36.696Z,61.7155
2019-04-28T10:50:37.893Z,62.3793
2019-04-28T10:51:39.808Z,61.7342
2019-04-28T10:52:41.748Z,61.4891
2019-04-28T10:53:42.984Z,61.5187
2019-04-28T10:54:44.888Z,64.6639
2019-04-28T10:55:47.112Z,62.7303
2019-04-28T10:56:48.948Z,59.0694
2019-04-28T10:57:50.860Z,56.1728
2019-04-28T10:58:52.705Z,56.9919
2019-04-28T10:59:54.572Z,58.5794
2019-04-28T11:00:55.761Z,57.3633
2019-04-28T11:01:57.563Z,58.3977
2019-04-28T11:02:59.422Z,57.4089
2019-04-28T11:04:01.298Z,57.5595
2019-04-28T11:05:08.764Z,55.8660
2019-04-28T11:06:09.489Z,57.5898
2019-04-28T11:07:10.714Z,57.2464
2019-04-28T11:08:12.523Z,56.7438
2019-04-28T11:09:13.706Z,57.1699
2019-04-28T11:10:15.718Z,58.0869
2019-04-28T11:11:17.509Z,56.9486
2019-04-28T11:12:19.590Z,57.3659
2019-04-28T11:13:21.497Z,59.5323
2019-04-28T11:14:22.691Z,58.9004
2019-04-28T11:15:24.622Z,58.9598
2019-04-28T11:16:26.699Z,56.6027
2019-04-28T11:17:27.897Z,53.5399
2019-04-28T11:18:29.837Z,52.9975
2019-04-28T11:19:31.767Z,52.9669
2019-04-28T11:20:33.649Z,51.8571
2019-04-28T11:21:34.841Z,54.8689
2019-04-28T11:22:36.699Z,54.2943
2019-04-28T11:23:39.077Z,55.5480
2019-04-28T11:24:40.937Z,52.1779
2019-04-28T11:25:42.843Z,52.8727
2019-04-28T11:26:44.781Z,52.8399
2019-04-28T11:27:45.590Z,55.9800
2019-04-28T11:28:47.630Z,53.2363
2019-04-28T11:29:49.439Z,54.5393
2019-04-28T11:30:50.632Z,54.7460
2019-04-28T11:31:52.859Z,55.1486
2019-04-28T11:32:54.823Z,56.6018
2019-04-28T11:33:56.723Z,57.1761
2019-04-28T11:34:58.632Z,57.3892
2019-04-28T11:36:00.618Z,59.0915
2019-04-28T11:37:02.891Z,58.5466
2019-04-28T11:38:04.688Z,56.7261
2019-04-28T11:39:05.949Z,56.9356
2019-04-28T11:40:07.895Z,56.4704
2019-04-28T11:41:11.584Z,55.7702
2019-04-28T11:42:12.929Z,55.5204
2019-04-28T11:43:14.783Z,59.2403
2019-04-28T11:44:15.979Z,56.0065
2019-04-28T11:45:17.926Z,58.8240
2019-04-28T11:46:19.887Z,57.5390
2019-04-28T11:47:21.374Z,54.8645
2019-04-28T11:48:23.441Z,54.6802
2019-04-28T11:49:25.314Z,58.3380
2019-04-28T11:50:27.128Z,57.9600
2019-04-28T11:51:29.094Z,60.3284
2019-04-28T11:52:31.264Z,59.4475
2019-04-28T11:53:33.112Z,53.8053
2019-04-28T11:54:35.091Z,53.7533
2019-04-28T11:55:35.980Z,51.8494
2019-04-28T11:56:41.438Z,46.3559
2019-04-28T11:57:43.914Z,46.7660
2019-04-28T11:58:45.791Z,44.6132
2019-04-28T11:59:47.614Z,47.8729
2019-04-28T12:00:48.811Z,46.5805
2019-04-28T12:01:50.585Z,46.1188
2019-04-28T12:02:52.669Z,46.4560
2019-04-28T12:03:54.569Z,44.2754
2019-04-28T12:04:56.566Z,45.6124
2019-04-28T12:05:58.444Z,44.5688
2019-04-28T12:07:00.234Z,45.3135
2019-04-28T12:08:02.017Z,44.2688
2019-04-28T12:09:03.457Z,48.9414
2019-04-28T12:10:06.376Z,52.0270
2019-04-28T12:11:07.836Z,49.0586
2019-04-28T12:12:09.674Z,51.3391
2019-04-28T12:13:10.884Z,54.5936
2019-04-28T12:14:12.850Z,54.2975
2019-04-28T12:15:14.707Z,52.4749
2019-04-28T12:16:16.493Z,51.1609
2019-04-28T12:17:18.253Z,48.4092
2019-04-28T12:18:19.449Z,50.0778
2019-04-28T12:19:20.959Z,51.2355
2019-04-28T12:20:22.796Z,50.0811
2019-04-28T12:21:23.983Z,49.8836
2019-04-28T12:22:25.889Z,49.0002
2019-04-28T12:23:28.050Z,49.1794
2019-04-28T12:24:29.236Z,49.5907
2019-04-28T12:25:31.145Z,48.7507
2019-04-28T12:26:33.032Z,49.6964
2019-04-28T12:27:34.270Z,52.3916
2019-04-28T12:28:36.439Z,55.9452
2019-04-28T12:29:38.328Z,56.1048